createdAt,value
2022-10-31T00:01:42.650Z,312.42
2022-10-31T00:04:11.824Z,308.48
2022-10-31T00:06:40.614Z,292.85
2022-10-31T00:09:11.766Z,288.17
2022-10-31T00:11:41.751Z,299.60
2022-10-31T00:14:10.599Z,305.30
2022-10-31T00:16:40.310Z,300.13
2022-10-31T00:19:11.075Z,301.55
2022-10-31T00:21:40.220Z,295.63
2022-10-31T00:24:09.415Z,286.27
2022-10-31T00:26:39.585Z,301.63
2022-10-31T00:29:08.796Z,294.25
2022-10-31T00:31:39.547Z,311.75
2022-10-31T00:34:08.268Z,311.48
2022-10-31T00:36:37.940Z,316.08
2022-10-31T00:39:07.107Z,311.20
2022-10-31T00:41:36.145Z,303.90
2022-10-31T00:44:06.205Z,289.25
2022-10-31T00:46:35.319Z,291.70
2022-10-31T00:49:05.198Z,288.60
2022-10-31T00:51:34.668Z,295.92
2022-10-31T00:54:03.896Z,293.33
2022-10-31T00:56:33.711Z,307.25
2022-10-31T00:59:02.737Z,301.83
2022-10-31T01:01:36.447Z,304.15
2022-10-31T01:04:06.135Z,302.10
2022-10-31T01:06:39.316Z,301.17
2022-10-31T01:09:11.571Z,287.10
2022-10-31T01:11:44.083Z,292.33
2022-10-31T01:14:14.180Z,288.70
2022-10-31T01:16:44.271Z,285.05
2022-10-31T01:19:15.333Z,299.23
2022-10-31T01:21:45.754Z,305.77
2022-10-31T01:24:16.681Z,279.10
2022-10-31T01:26:46.804Z,277.55
2022-10-31T01:29:17.598Z,287.48
2022-10-31T01:31:48.083Z,293.10
2022-10-31T01:34:21.659Z,307.90
2022-10-31T01:36:53.427Z,293.15
2022-10-31T01:39:26.467Z,312.98
2022-10-31T01:41:57.374Z,302.02
2022-10-31T01:44:28.954Z,288.55
2022-10-31T01:46:58.240Z,295.35
2022-10-31T01:49:36.445Z,306.23
2022-10-31T01:52:15.235Z,288.70
2022-10-31T01:55:17.714Z,293.67
2022-10-31T01:57:51.488Z,303.45
2022-10-31T02:00:24.772Z,297.85
2022-10-31T02:02:54.615Z,297.40
2022-10-31T02:05:28.259Z,298.23
2022-10-31T02:08:00.761Z,301.63
2022-10-31T02:10:36.592Z,309.52
2022-10-31T02:13:09.986Z,309.70
2022-10-31T02:15:51.052Z,301.15
2022-10-31T02:18:23.410Z,301.35
2022-10-31T02:20:53.798Z,292.75
2022-10-31T02:24:03.758Z,286.13
2022-10-31T02:26:48.349Z,298.38
2022-10-31T02:29:47.695Z,290.38
2022-10-31T02:32:45.095Z,287.00
2022-10-31T02:35:27.928Z,277.25
2022-10-31T02:38:24.892Z,523.85
2022-10-31T02:41:18.225Z,411.38
2022-10-31T02:44:12.156Z,342.88
2022-10-31T02:46:54.736Z,306.75
2022-10-31T02:49:29.955Z,331.98
2022-10-31T02:51:59.890Z,308.77
2022-10-31T02:54:31.366Z,296.85
2022-10-31T02:57:08.078Z,266.65
2022-10-31T02:59:43.930Z,292.40
2022-10-31T03:02:37.777Z,262.75
2022-10-31T03:05:36.493Z,263.52
2022-10-31T03:08:27.998Z,272.20
2022-10-31T03:11:01.004Z,266.17
2022-10-31T03:13:53.536Z,265.52
2022-10-31T03:16:54.233Z,280.13
2022-10-31T03:19:24.273Z,270.52
2022-10-31T03:22:02.150Z,278.02
2022-10-31T03:24:42.574Z,259.50
2022-10-31T03:27:16.818Z,269.65
2022-10-31T03:29:49.174Z,269.40
2022-10-31T03:32:31.985Z,281.02
2022-10-31T03:35:05.871Z,263.63
2022-10-31T03:37:39.975Z,279.00
2022-10-31T03:40:17.211Z,272.58
2022-10-31T03:42:58.089Z,267.25
2022-10-31T03:45:32.045Z,289.45
2022-10-31T03:48:02.531Z,270.33
2022-10-31T03:50:43.570Z,273.08
2022-10-31T03:53:25.629Z,292.25
2022-10-31T03:56:12.616Z,283.02
2022-10-31T03:59:08.896Z,286.88
2022-10-31T04:01:45.871Z,286.80
2022-10-31T04:04:16.411Z,287.42
2022-10-31T04:06:48.984Z,259.77
2022-10-31T04:11:55.498Z,274.65
2022-10-31T04:14:50.673Z,278.70
2022-10-31T04:19:51.064Z,286.70
2022-10-31T04:22:20.538Z,290.15
2022-10-31T04:24:51.234Z,289.85
2022-10-31T04:27:21.104Z,282.38
2022-10-31T04:29:51.047Z,281.45
2022-10-31T04:32:21.285Z,277.75
2022-10-31T04:34:50.595Z,294.52
2022-10-31T04:37:19.560Z,284.40
2022-10-31T04:39:50.678Z,289.63
2022-10-31T04:42:38.583Z,292.40
2022-10-31T04:45:10.731Z,275.58
2022-10-31T04:47:45.450Z,263.83
2022-10-31T04:50:15.295Z,284.85
2022-10-31T04:52:55.671Z,277.92
2022-10-31T04:55:29.531Z,267.58
2022-10-31T04:58:21.924Z,276.75
2022-10-31T05:00:57.101Z,285.30
2022-10-31T05:03:27.524Z,279.17
2022-10-31T05:05:57.457Z,276.83
2022-10-31T05:08:26.405Z,274.25
2022-10-31T05:10:59.164Z,281.23
2022-10-31T05:13:32.281Z,281.15
2022-10-31T05:16:16.823Z,260.88
2022-10-31T05:19:04.806Z,276.40
2022-10-31T05:21:40.171Z,271.27
2022-10-31T05:24:11.113Z,244.15
2022-10-31T05:26:42.893Z,267.02
2022-10-31T05:29:12.497Z,264.48
2022-10-31T05:31:42.034Z,257.77
2022-10-31T05:34:22.044Z,275.77
2022-10-31T05:37:29.514Z,253.05
2022-10-31T05:40:36.060Z,270.25
2022-10-31T05:43:05.992Z,266.88
2022-10-31T05:45:34.911Z,274.85
2022-10-31T05:48:11.123Z,279.05
2022-10-31T05:50:58.843Z,259.30
2022-10-31T05:53:28.677Z,265.63
2022-10-31T05:55:57.689Z,244.70
2022-10-31T05:58:27.827Z,262.55
2022-10-31T06:01:07.673Z,271.98
2022-10-31T06:03:37.321Z,269.70
2022-10-31T06:06:09.038Z,260.85
2022-10-31T06:08:44.708Z,262.65
2022-10-31T06:11:21.396Z,270.05
2022-10-31T06:14:14.153Z,257.77
2022-10-31T06:16:52.701Z,264.17
2022-10-31T06:19:40.725Z,249.27
2022-10-31T06:22:13.644Z,252.32
2022-10-31T06:24:43.354Z,272.67
2022-10-31T06:27:21.183Z,270.17
2022-10-31T06:29:51.436Z,255.32
2022-10-31T06:32:29.688Z,265.67
2022-10-31T06:35:00.656Z,262.38
2022-10-31T06:37:30.608Z,249.90
2022-10-31T06:40:07.530Z,264.33
2022-10-31T06:43:03.865Z,269.75
2022-10-31T06:45:34.246Z,259.08
2022-10-31T06:48:22.411Z,251.20
2022-10-31T06:51:10.693Z,265.42
2022-10-31T06:53:40.314Z,266.95
2022-10-31T06:56:11.712Z,267.83
2022-10-31T06:58:49.338Z,266.45
2022-10-31T07:01:25.608Z,266.38
2022-10-31T07:03:55.083Z,253.65
2022-10-31T07:06:24.169Z,259.25
2022-10-31T07:08:53.740Z,257.23
2022-10-31T07:11:23.241Z,262.48
2022-10-31T07:13:52.955Z,249.70
2022-10-31T07:16:23.187Z,255.07
2022-10-31T07:18:52.757Z,238.70
2022-10-31T07:21:22.354Z,247.73
2022-10-31T07:23:52.282Z,241.93
2022-10-31T07:26:45.063Z,240.20
2022-10-31T07:29:16.692Z,238.00
2022-10-31T07:31:48.715Z,250.40
2022-10-31T07:34:28.233Z,235.02
2022-10-31T07:37:23.157Z,242.55
2022-10-31T07:39:54.547Z,225.43
2022-10-31T07:42:23.734Z,236.80
2022-10-31T07:45:14.457Z,233.55
2022-10-31T07:48:05.986Z,223.80
2022-10-31T07:50:54.418Z,222.20
2022-10-31T07:53:50.067Z,245.98
2022-10-31T07:56:27.816Z,231.10
2022-10-31T07:58:57.578Z,240.70
2022-10-31T08:01:26.657Z,228.60
2022-10-31T08:04:15.849Z,223.38
2022-10-31T08:07:03.161Z,187.50
2022-10-31T08:09:37.253Z,198.35
2022-10-31T08:12:17.796Z,215.23
2022-10-31T08:14:47.336Z,219.50
2022-10-31T08:17:19.450Z,213.55
2022-10-31T08:19:55.731Z,209.07
2022-10-31T08:22:31.410Z,187.75
2022-10-31T08:25:02.339Z,194.52
2022-10-31T08:27:31.537Z,200.32
2022-10-31T08:30:03.328Z,192.55
2022-10-31T08:32:34.108Z,175.17
2022-10-31T08:35:32.476Z,167.77
2022-10-31T08:38:34.582Z,155.07
2022-10-31T08:41:04.324Z,170.63
2022-10-31T08:43:33.138Z,175.82
2022-10-31T08:46:02.498Z,176.00
2022-10-31T08:48:31.922Z,177.98
2022-10-31T08:51:03.243Z,170.95
2022-10-31T08:53:33.198Z,180.50
2022-10-31T08:56:24.938Z,168.60
2022-10-31T08:58:56.481Z,167.75
2022-10-31T09:01:58.028Z,151.05
2022-10-31T09:04:28.397Z,166.60
2022-10-31T09:09:47.947Z,157.18
2022-10-31T09:12:17.425Z,173.05
2022-10-31T09:15:10.111Z,152.45
2022-10-31T09:17:58.959Z,168.10
2022-10-31T09:20:55.443Z,157.48
2022-10-31T09:23:25.764Z,160.45
2022-10-31T09:25:56.636Z,148.35
2022-10-31T09:28:48.968Z,156.48
2022-10-31T09:31:20.387Z,171.10
2022-10-31T09:33:57.723Z,162.30
2022-10-31T09:36:45.384Z,164.20
2022-10-31T09:39:22.889Z,165.23
2022-10-31T09:42:07.837Z,159.63
2022-10-31T09:45:13.733Z,166.85
2022-10-31T09:48:02.047Z,160.85
2022-10-31T09:50:46.416Z,170.55
2022-10-31T09:54:03.742Z,168.75
2022-10-31T09:56:35.233Z,181.52
2022-10-31T09:59:09.192Z,172.73
2022-10-31T10:01:57.448Z,183.43
2022-10-31T10:05:05.253Z,190.07
2022-10-31T10:07:57.224Z,184.90
2022-10-31T10:10:56.883Z,184.55
2022-10-31T10:13:37.563Z,205.23
2022-10-31T10:16:13.514Z,191.45
2022-10-31T10:19:02.050Z,190.05
2022-10-31T10:21:49.943Z,192.68
2022-10-31T10:24:52.043Z,191.93
2022-10-31T10:27:44.634Z,186.95
2022-10-31T10:30:21.068Z,179.43
2022-10-31T10:33:05.690Z,173.52
2022-10-31T10:35:52.542Z,181.75
2022-10-31T10:38:39.575Z,193.40
2022-10-31T10:41:16.722Z,179.40
2022-10-31T10:46:39.584Z,197.70
2022-10-31T10:49:27.026Z,199.95
2022-10-31T10:52:39.730Z,196.52
2022-10-31T10:55:09.072Z,197.02
2022-10-31T10:58:02.980Z,200.75
2022-10-31T11:00:41.475Z,197.15
2022-10-31T11:03:12.109Z,193.00
2022-10-31T11:06:18.444Z,204.52
2022-10-31T11:08:47.512Z,204.05
2022-10-31T11:11:19.576Z,214.20
2022-10-31T11:13:55.015Z,205.07
2022-10-31T11:16:44.828Z,227.18
2022-10-31T11:19:28.487Z,216.98
2022-10-31T11:22:17.499Z,206.00
2022-10-31T11:24:47.242Z,206.15
2022-10-31T11:27:18.032Z,208.05
2022-10-31T11:29:50.144Z,225.98
2022-10-31T11:32:29.028Z,220.70
2022-10-31T11:35:03.993Z,226.73
2022-10-31T11:37:38.042Z,209.90
2022-10-31T11:40:09.362Z,233.68
2022-10-31T11:42:45.263Z,239.55
2022-10-31T11:45:31.149Z,247.77
2022-10-31T11:48:03.870Z,236.95
2022-10-31T11:50:43.365Z,229.18
2022-10-31T11:53:22.964Z,258.60
2022-10-31T11:56:21.932Z,258.60
2022-10-31T11:59:23.966Z,270.92
2022-10-31T12:02:03.121Z,264.58
2022-10-31T12:05:20.240Z,256.42
2022-10-31T12:07:51.059Z,266.50
2022-10-31T12:10:24.583Z,267.23
2022-10-31T12:13:27.164Z,270.20
2022-10-31T12:16:07.342Z,284.27
2022-10-31T12:18:57.520Z,263.55
2022-10-31T12:22:05.798Z,284.13
2022-10-31T12:25:14.895Z,282.50
2022-10-31T12:28:22.144Z,284.08
2022-10-31T12:31:00.083Z,287.92
2022-10-31T12:34:06.198Z,286.45
2022-10-31T12:36:47.298Z,288.85
2022-10-31T12:39:27.902Z,308.40
2022-10-31T12:42:22.039Z,295.48
2022-10-31T12:45:11.755Z,308.40
2022-10-31T12:48:12.588Z,324.52
2022-10-31T12:51:05.033Z,309.85
2022-10-31T12:53:45.040Z,310.80
2022-10-31T12:56:25.909Z,318.15
2022-10-31T12:59:05.199Z,319.95
2022-10-31T13:01:34.890Z,330.83
2022-10-31T13:04:18.796Z,340.98
2022-10-31T13:07:02.575Z,329.55
2022-10-31T13:09:41.262Z,350.75
2022-10-31T13:12:14.244Z,363.08
2022-10-31T13:14:51.523Z,350.60
2022-10-31T13:17:26.839Z,325.33
2022-10-31T13:20:07.833Z,366.20
2022-10-31T13:22:39.038Z,359.98
2022-10-31T13:25:32.745Z,372.92
2022-10-31T13:28:07.606Z,362.40
2022-10-31T13:30:43.033Z,351.42
2022-10-31T13:33:25.611Z,379.10
2022-10-31T13:35:58.066Z,369.27
2022-10-31T13:39:08.795Z,370.60
2022-10-31T13:42:02.260Z,386.13
2022-10-31T13:44:38.189Z,375.00
2022-10-31T13:47:30.702Z,390.80
2022-10-31T13:50:26.027Z,402.17
2022-10-31T13:53:16.847Z,392.98
2022-10-31T13:55:55.257Z,404.88
2022-10-31T13:58:31.521Z,400.23
2022-10-31T14:01:24.882Z,395.63
2022-10-31T14:04:22.272Z,377.20
2022-10-31T14:07:18.846Z,357.45
2022-10-31T14:10:01.225Z,344.95
2022-10-31T14:12:45.517Z,347.00
2022-10-31T14:15:16.298Z,325.88
2022-10-31T14:18:01.522Z,324.08
2022-10-31T14:20:40.071Z,319.50
2022-10-31T14:23:36.545Z,330.15
2022-10-31T14:26:28.341Z,299.92
2022-10-31T14:29:00.106Z,301.40
2022-10-31T14:31:40.201Z,321.88
2022-10-31T14:34:31.088Z,312.05
2022-10-31T14:37:18.811Z,292.88
2022-10-31T14:40:23.501Z,302.20
2022-10-31T14:43:16.546Z,305.15
2022-10-31T14:46:02.798Z,299.25
2022-10-31T14:49:01.254Z,295.65
2022-10-31T14:51:43.565Z,295.20
2022-10-31T14:54:28.092Z,280.58
2022-10-31T14:57:03.338Z,279.98
2022-10-31T14:59:37.677Z,275.08
2022-10-31T15:02:25.949Z,270.55
2022-10-31T15:04:57.741Z,258.05
2022-10-31T15:07:30.568Z,276.60
2022-10-31T15:10:08.912Z,272.90
2022-10-31T15:12:40.611Z,277.67
2022-10-31T15:15:20.938Z,297.30
2022-10-31T15:18:02.150Z,285.60
2022-10-31T15:20:47.217Z,277.70
2022-10-31T15:23:33.718Z,268.92
2022-10-31T15:26:05.400Z,267.67
2022-10-31T15:28:35.202Z,274.85
2022-10-31T15:31:05.298Z,273.27
2022-10-31T15:33:48.199Z,273.38
2022-10-31T15:36:29.056Z,280.30
2022-10-31T15:38:59.889Z,285.77
2022-10-31T15:41:37.649Z,261.75
2022-10-31T15:44:21.872Z,267.42
2022-10-31T15:47:06.726Z,281.00
2022-10-31T15:49:43.400Z,294.58
2022-10-31T15:52:31.414Z,288.73
2022-10-31T15:55:18.241Z,302.83
2022-10-31T15:57:53.364Z,287.15
2022-10-31T16:00:32.731Z,269.42
2022-10-31T16:03:09.360Z,283.75
2022-10-31T16:05:48.875Z,270.52
2022-10-31T16:08:33.134Z,293.13
2022-10-31T16:11:16.607Z,281.67
2022-10-31T16:14:25.344Z,286.45
2022-10-31T16:16:59.770Z,267.58
2022-10-31T16:19:36.521Z,299.02
2022-10-31T16:22:16.406Z,272.30
2022-10-31T16:24:50.642Z,295.00
2022-10-31T16:27:27.816Z,278.77
2022-10-31T16:29:59.346Z,275.00
2022-10-31T16:32:56.153Z,286.05
2022-10-31T16:35:40.201Z,291.60
2022-10-31T16:38:11.675Z,282.20
2022-10-31T16:40:41.893Z,269.98
2022-10-31T16:43:14.660Z,276.00
2022-10-31T16:50:55.512Z,274.83
2022-10-31T16:53:25.544Z,284.85
2022-10-31T16:56:03.899Z,296.65
2022-10-31T16:58:38.180Z,290.02
2022-10-31T17:01:09.313Z,304.33
2022-10-31T17:03:39.007Z,307.60
2022-10-31T17:06:08.051Z,317.08
2022-10-31T17:08:37.386Z,326.55
2022-10-31T17:11:07.186Z,317.80
2022-10-31T17:13:36.901Z,321.88
2022-10-31T17:16:07.694Z,299.92
2022-10-31T17:18:36.826Z,302.13
2022-10-31T17:21:10.371Z,303.13
2022-10-31T17:23:39.615Z,307.45
2022-10-31T17:26:11.452Z,289.30
2022-10-31T17:28:41.651Z,298.42
2022-10-31T17:31:24.776Z,305.95
2022-10-31T17:34:02.272Z,273.90
2022-10-31T17:36:34.120Z,283.48
2022-10-31T17:39:05.431Z,284.50
2022-10-31T17:41:34.530Z,315.38
2022-10-31T17:44:04.110Z,306.75
2022-10-31T17:46:33.686Z,290.23
2022-10-31T17:49:02.917Z,319.80
2022-10-31T17:51:32.639Z,316.02
2022-10-31T17:54:01.750Z,310.95
2022-10-31T17:56:31.254Z,314.23
2022-10-31T17:59:00.306Z,318.17
2022-10-31T18:01:29.365Z,335.55
2022-10-31T18:03:59.242Z,318.35
2022-10-31T18:06:28.196Z,340.92
2022-10-31T18:08:59.382Z,359.98
2022-10-31T18:11:28.554Z,335.58
2022-10-31T18:13:58.817Z,357.90
2022-10-31T18:16:28.660Z,348.73
2022-10-31T18:19:03.002Z,365.45
2022-10-31T18:21:33.936Z,342.83
2022-10-31T18:24:03.959Z,351.77
2022-10-31T18:26:34.124Z,327.90
2022-10-31T18:29:03.213Z,346.58
2022-10-31T18:31:33.360Z,329.95
2022-10-31T18:34:03.185Z,327.58
2022-10-31T18:36:32.440Z,356.10
2022-10-31T18:39:02.462Z,329.27
2022-10-31T18:41:31.696Z,341.23
2022-10-31T18:44:03.787Z,346.42
2022-10-31T18:46:32.997Z,356.70
2022-10-31T18:49:03.627Z,373.15
2022-10-31T18:51:33.012Z,391.45
2022-10-31T18:54:02.934Z,370.25
2022-10-31T18:56:33.050Z,367.52
2022-10-31T18:59:05.262Z,365.50
2022-10-31T19:04:03.554Z,344.77
2022-10-31T19:06:33.308Z,362.42
2022-10-31T19:09:06.432Z,358.85
2022-10-31T19:11:37.097Z,347.40
2022-10-31T19:14:08.449Z,368.85
2022-10-31T19:16:37.886Z,366.13
2022-10-31T19:19:07.194Z,367.08
2022-10-31T19:21:36.427Z,388.00
2022-10-31T19:24:05.891Z,365.73
2022-10-31T19:26:36.093Z,368.63
2022-10-31T19:29:05.952Z,349.55
2022-10-31T19:31:35.920Z,367.25
2022-10-31T19:34:04.825Z,346.25
2022-10-31T19:36:35.794Z,379.05
2022-10-31T19:39:05.261Z,350.98
2022-10-31T19:41:37.585Z,373.95
2022-10-31T19:44:09.324Z,354.73
2022-10-31T19:46:52.683Z,342.10
2022-10-31T19:49:22.626Z,345.83
2022-10-31T19:51:52.326Z,330.15
2022-10-31T19:54:21.395Z,326.77
2022-10-31T19:56:50.390Z,336.05
2022-10-31T19:59:19.503Z,317.33
2022-10-31T20:01:48.680Z,349.98
2022-10-31T20:04:17.965Z,348.77
2022-10-31T20:06:46.780Z,342.60
2022-10-31T20:09:16.920Z,354.58
2022-10-31T20:11:47.881Z,364.17
2022-10-31T20:14:19.408Z,367.98
2022-10-31T20:16:48.770Z,380.98
2022-10-31T20:19:17.567Z,355.48
2022-10-31T20:21:47.149Z,359.80
2022-10-31T20:24:16.478Z,369.65
2022-10-31T20:26:45.931Z,368.73
2022-10-31T20:29:17.308Z,344.77
2022-10-31T20:31:48.055Z,348.75
2022-10-31T20:34:18.764Z,351.45
2022-10-31T20:36:49.194Z,339.52
2022-10-31T20:39:18.432Z,357.83
2022-10-31T20:41:47.435Z,340.13
2022-10-31T20:44:16.524Z,346.40
2022-10-31T20:46:46.310Z,347.88
2022-10-31T20:49:15.305Z,338.85
2022-10-31T20:51:44.562Z,337.15
2022-10-31T20:54:14.938Z,358.50
2022-10-31T20:56:47.785Z,344.33
2022-10-31T20:59:18.868Z,352.15
2022-10-31T21:01:48.651Z,356.05
2022-10-31T21:04:17.600Z,353.05
2022-10-31T21:06:49.470Z,379.25
2022-10-31T21:09:19.224Z,380.02
2022-10-31T21:11:48.330Z,389.00
2022-10-31T21:14:17.496Z,364.80
2022-10-31T21:16:46.730Z,356.55
2022-10-31T21:19:16.377Z,370.30
2022-10-31T21:21:45.357Z,362.60
2022-10-31T21:26:48.566Z,350.23
2022-10-31T21:29:18.764Z,324.57
2022-10-31T21:31:48.864Z,315.77
2022-10-31T21:34:18.851Z,332.38
2022-10-31T21:36:47.617Z,317.90
2022-10-31T21:39:16.952Z,341.25
2022-10-31T21:41:46.384Z,304.45
2022-10-31T21:44:15.777Z,318.00
2022-10-31T21:46:45.961Z,319.05
2022-10-31T21:49:16.216Z,313.55
2022-10-31T21:51:45.309Z,312.30
2022-10-31T21:54:31.467Z,322.10
2022-10-31T21:57:04.691Z,333.83
2022-10-31T21:59:34.838Z,316.83
2022-10-31T22:02:04.091Z,326.77
2022-10-31T22:04:35.178Z,349.63
2022-10-31T22:07:04.355Z,309.85
2022-10-31T22:09:33.596Z,313.50
2022-10-31T22:12:07.789Z,313.30
2022-10-31T22:14:37.210Z,320.20
2022-10-31T22:17:06.181Z,326.48
2022-10-31T22:19:36.191Z,318.17
2022-10-31T22:22:05.206Z,316.20
2022-10-31T22:24:34.271Z,326.45
2022-10-31T22:27:03.417Z,323.70
2022-10-31T22:29:32.910Z,326.75
2022-10-31T22:32:02.191Z,324.20
2022-10-31T22:34:31.193Z,332.85
2022-10-31T22:37:00.415Z,321.35
2022-10-31T22:39:29.714Z,325.20
2022-10-31T22:41:59.071Z,309.75
2022-10-31T22:44:28.238Z,307.23
2022-10-31T22:46:57.178Z,306.13
2022-10-31T22:49:26.867Z,301.75
2022-10-31T22:51:56.986Z,300.63
2022-10-31T22:54:26.490Z,289.85
2022-10-31T22:56:55.388Z,291.73
2022-10-31T22:59:24.444Z,310.52
2022-10-31T23:01:55.511Z,278.80
2022-10-31T23:04:25.035Z,294.65
2022-10-31T23:06:55.000Z,272.73
2022-10-31T23:09:24.387Z,287.00
2022-10-31T23:11:53.300Z,294.65
2022-10-31T23:14:22.885Z,287.95
2022-10-31T23:16:56.584Z,279.67
2022-10-31T23:19:31.720Z,269.20
2022-10-31T23:22:05.134Z,274.40
2022-10-31T23:24:39.579Z,263.45
2022-10-31T23:27:13.705Z,265.48
2022-10-31T23:29:55.243Z,256.92
2022-10-31T23:32:28.625Z,255.25
2022-10-31T23:35:05.189Z,232.60
2022-10-31T23:37:36.574Z,222.93
2022-10-31T23:40:07.651Z,223.43
2022-10-31T23:42:37.023Z,231.13
2022-10-31T23:45:06.432Z,225.98
2022-10-31T23:47:38.332Z,227.98
2022-10-31T23:50:10.409Z,223.57
2022-10-31T23:52:39.413Z,213.35
2022-10-31T23:55:09.080Z,212.30
2022-10-31T23:57:39.169Z,214.50
